createdAt,value
2018-12-07T00:02:18.308Z,12.15
2018-12-07T00:04:47.162Z,12.25
2018-12-07T00:07:16.078Z,12.19
2018-12-07T00:09:44.979Z,12.17
2018-12-07T00:12:13.911Z,12.17
2018-12-07T00:14:42.824Z,12.15
2018-12-07T00:17:11.768Z,12.23
2018-12-07T00:19:47.725Z,12.15
2018-12-07T00:22:09.604Z,12.22
2018-12-07T00:24:38.528Z,12.16
2018-12-07T00:27:07.506Z,12.09
2018-12-07T00:29:36.434Z,12.12
2018-12-07T00:32:05.353Z,12.07
2018-12-07T00:34:34.280Z,12.13
2018-12-07T00:37:03.202Z,12.19
2018-12-07T00:39:32.223Z,12.09
2018-12-07T00:42:01.164Z,12.07
2018-12-07T00:44:30.051Z,12.10
2018-12-07T00:46:58.936Z,12.14
2018-12-07T00:49:27.851Z,12.14
2018-12-07T00:51:56.755Z,12.10
2018-12-07T00:54:25.665Z,12.07
2018-12-07T00:56:54.553Z,12.11
2018-12-07T00:59:23.466Z,12.05
2018-12-07T01:01:52.379Z,12.12
2018-12-07T01:04:21.307Z,12.09
2018-12-07T01:06:50.214Z,12.19
2018-12-07T01:09:19.102Z,12.09
2018-12-07T01:11:48.046Z,12.17
2018-12-07T01:14:16.933Z,12.42
2018-12-07T01:16:45.842Z,12.33
2018-12-07T01:19:14.806Z,12.31
2018-12-07T01:21:43.733Z,12.28
2018-12-07T01:24:12.630Z,12.48
2018-12-07T01:26:41.560Z,12.37
2018-12-07T01:29:10.465Z,12.29
2018-12-07T01:31:39.395Z,12.23
2018-12-07T01:34:08.382Z,12.14
2018-12-07T01:36:37.301Z,12.15
2018-12-07T01:39:07.205Z,12.28
2018-12-07T01:41:36.135Z,12.17
2018-12-07T01:44:05.038Z,12.21
2018-12-07T01:46:33.966Z,12.24
2018-12-07T01:49:02.897Z,12.34
2018-12-07T01:51:31.826Z,12.30
2018-12-07T01:54:00.759Z,12.20
2018-12-07T01:56:29.719Z,12.25
2018-12-07T01:58:58.626Z,12.20
2018-12-07T02:01:27.516Z,12.17
2018-12-07T02:03:56.443Z,12.25
2018-12-07T02:06:25.352Z,12.19
2018-12-07T02:08:54.284Z,12.19
2018-12-07T02:11:23.186Z,12.12
2018-12-07T02:13:52.125Z,12.10
2018-12-07T02:16:21.013Z,12.14
2018-12-07T02:18:49.935Z,12.15
2018-12-07T02:21:18.834Z,12.09
2018-12-07T02:23:47.782Z,12.35
2018-12-07T02:26:16.697Z,12.20
2018-12-07T02:28:45.635Z,12.19
2018-12-07T02:31:14.533Z,12.13
2018-12-07T02:33:43.462Z,12.24
2018-12-07T02:36:12.364Z,12.19
2018-12-07T02:38:41.292Z,12.12
2018-12-07T02:41:10.253Z,12.15
2018-12-07T02:43:39.133Z,12.07
2018-12-07T02:46:08.118Z,12.39
2018-12-07T02:48:36.973Z,12.55
2018-12-07T02:51:05.967Z,12.38
2018-12-07T02:53:34.860Z,12.30
2018-12-07T02:56:03.764Z,12.27
2018-12-07T02:58:32.658Z,12.24
2018-12-07T03:01:01.578Z,12.25
2018-12-07T03:03:30.498Z,12.29
2018-12-07T03:05:59.412Z,12.38
2018-12-07T03:08:28.341Z,12.30
2018-12-07T03:10:57.252Z,12.31
2018-12-07T03:13:26.202Z,12.12
2018-12-07T03:15:55.109Z,12.08
2018-12-07T03:18:31.440Z,12.14
2018-12-07T03:21:00.342Z,12.12
2018-12-07T03:23:29.279Z,12.11
2018-12-07T03:25:58.191Z,12.15
2018-12-07T03:28:27.119Z,12.05
2018-12-07T03:30:56.022Z,12.06
2018-12-07T03:33:24.943Z,12.14
2018-12-07T03:35:53.836Z,12.18
2018-12-07T03:38:22.732Z,12.37
2018-12-07T03:40:51.667Z,12.23
2018-12-07T03:43:20.560Z,12.28
2018-12-07T03:45:49.477Z,12.23
2018-12-07T03:48:18.390Z,12.14
2018-12-07T03:50:47.294Z,12.17
2018-12-07T03:53:16.220Z,12.49
2018-12-07T03:55:45.119Z,12.23
2018-12-07T03:58:14.147Z,12.06
2018-12-07T04:00:43.057Z,12.10
2018-12-07T04:03:11.998Z,12.06
2018-12-07T04:05:40.926Z,11.98
2018-12-07T04:08:09.823Z,11.99
2018-12-07T04:10:38.789Z,11.95
2018-12-07T04:13:07.670Z,12.03
2018-12-07T04:15:36.621Z,12.10
2018-12-07T04:18:05.550Z,11.94
2018-12-07T04:20:34.456Z,12.01
2018-12-07T04:23:03.392Z,12.01
2018-12-07T04:25:32.379Z,11.90
2018-12-07T04:28:01.310Z,12.03
2018-12-07T04:30:30.203Z,12.03
2018-12-07T04:32:59.130Z,11.96
2018-12-07T04:35:28.022Z,12.05
2018-12-07T04:37:56.924Z,11.90
2018-12-07T04:40:25.840Z,11.89
2018-12-07T04:42:54.785Z,11.88
2018-12-07T04:45:23.673Z,11.97
2018-12-07T04:47:52.592Z,11.87
2018-12-07T04:50:21.521Z,11.90
2018-12-07T04:52:50.419Z,11.83
2018-12-07T04:55:19.322Z,11.83
2018-12-07T04:57:48.197Z,11.92
2018-12-07T05:00:17.122Z,11.92
2018-12-07T05:02:46.025Z,11.82
2018-12-07T05:05:14.935Z,11.78
2018-12-07T05:07:43.853Z,11.89
2018-12-07T05:10:12.790Z,11.85
2018-12-07T05:12:41.693Z,11.85
2018-12-07T05:15:10.676Z,11.92
2018-12-07T05:17:41.044Z,11.88
2018-12-07T05:20:09.997Z,11.85
2018-12-07T05:22:38.888Z,11.90
2018-12-07T05:25:07.901Z,11.91
2018-12-07T05:27:36.770Z,11.85
2018-12-07T05:30:06.970Z,11.79
2018-12-07T05:32:35.873Z,11.74
2018-12-07T05:35:05.006Z,11.81
2018-12-07T05:37:33.931Z,11.83
2018-12-07T05:40:02.830Z,11.76
2018-12-07T05:42:31.738Z,11.77
2018-12-07T05:45:00.633Z,11.75
2018-12-07T05:47:29.558Z,11.71
2018-12-07T05:49:58.456Z,11.77
2018-12-07T05:52:27.360Z,12.08
2018-12-07T05:54:56.274Z,12.13
2018-12-07T05:57:25.158Z,11.93
2018-12-07T05:59:54.061Z,11.87
2018-12-07T06:02:22.999Z,11.79
2018-12-07T06:04:51.913Z,11.96
2018-12-07T06:07:20.879Z,11.79
2018-12-07T06:09:49.736Z,11.80
2018-12-07T06:12:18.625Z,11.80
2018-12-07T06:14:47.572Z,11.79
2018-12-07T06:17:16.475Z,11.71
2018-12-07T06:19:45.380Z,11.81
2018-12-07T06:22:14.296Z,11.84
2018-12-07T06:24:43.178Z,11.82
2018-12-07T06:27:12.203Z,11.89
2018-12-07T06:29:41.120Z,11.84
2018-12-07T06:32:10.051Z,11.84
2018-12-07T06:34:38.944Z,12.07
2018-12-07T06:37:07.933Z,12.03
2018-12-07T06:39:36.825Z,11.82
2018-12-07T06:42:05.764Z,11.77
2018-12-07T06:44:34.676Z,11.69
2018-12-07T06:47:03.585Z,11.82
2018-12-07T06:49:32.556Z,11.69
2018-12-07T06:52:01.511Z,11.76
2018-12-07T06:54:30.377Z,12.03
2018-12-07T06:56:59.303Z,11.87
2018-12-07T06:59:28.199Z,11.89
2018-12-07T07:01:57.117Z,11.82
2018-12-07T07:04:26.040Z,11.88
2018-12-07T07:06:54.929Z,11.72
2018-12-07T07:09:23.844Z,11.76
2018-12-07T07:11:52.884Z,11.68
2018-12-07T07:14:21.790Z,11.74
2018-12-07T07:16:50.710Z,11.76
2018-12-07T07:19:19.627Z,11.85
2018-12-07T07:21:48.532Z,11.67
2018-12-07T07:24:17.434Z,11.84
2018-12-07T07:26:46.409Z,11.80
2018-12-07T07:29:15.295Z,11.83
2018-12-07T07:31:44.626Z,11.80
2018-12-07T07:34:13.523Z,11.73
2018-12-07T07:36:42.454Z,11.89
2018-12-07T07:39:11.319Z,11.78
2018-12-07T07:41:40.235Z,11.65
2018-12-07T07:44:09.239Z,11.77
2018-12-07T07:46:38.127Z,11.87
2018-12-07T07:49:07.240Z,11.80
2018-12-07T07:51:36.120Z,11.80
2018-12-07T07:54:05.127Z,11.76
2018-12-07T07:56:34.018Z,11.75
2018-12-07T07:59:03.100Z,11.71
2018-12-07T08:01:32.000Z,11.72
2018-12-07T08:04:00.865Z,11.79
2018-12-07T08:06:29.752Z,11.69
2018-12-07T08:08:58.627Z,11.63
2018-12-07T08:11:27.547Z,11.73
2018-12-07T08:13:56.406Z,11.57
2018-12-07T08:16:25.377Z,11.68
2018-12-07T08:18:54.241Z,11.68
2018-12-07T08:21:23.662Z,11.69
2018-12-07T08:23:52.624Z,11.77
2018-12-07T08:26:21.562Z,11.78
2018-12-07T08:28:50.482Z,11.77
2018-12-07T08:31:19.525Z,11.73
2018-12-07T08:33:48.454Z,11.83
2018-12-07T08:36:17.361Z,11.86
2018-12-07T08:38:46.264Z,11.72
2018-12-07T08:41:15.165Z,11.76
2018-12-07T08:43:44.090Z,11.75
2018-12-07T08:46:12.998Z,11.92
2018-12-07T08:48:41.900Z,12.04
2018-12-07T08:51:10.814Z,11.77
2018-12-07T08:53:39.709Z,11.82
2018-12-07T08:56:08.696Z,11.88
2018-12-07T08:58:37.585Z,11.75
2018-12-07T09:01:06.696Z,11.80
2018-12-07T09:03:35.558Z,11.78
2018-12-07T09:06:04.530Z,11.75
2018-12-07T09:08:33.482Z,11.68
2018-12-07T09:11:02.391Z,11.75
2018-12-07T09:13:31.223Z,11.96
2018-12-07T09:16:00.119Z,12.02
2018-12-07T09:18:29.080Z,11.61
2018-12-07T09:20:58.005Z,11.87
2018-12-07T09:23:26.935Z,11.69
2018-12-07T09:25:55.824Z,11.73
2018-12-07T09:28:24.757Z,11.77
2018-12-07T09:30:53.672Z,11.81
2018-12-07T09:33:22.581Z,11.70
2018-12-07T09:35:51.481Z,11.62
2018-12-07T09:38:20.397Z,11.75
2018-12-07T09:40:49.294Z,11.75
2018-12-07T09:43:18.202Z,12.04
2018-12-07T09:45:47.106Z,12.06
2018-12-07T09:48:15.999Z,11.90
2018-12-07T09:50:44.941Z,11.98
2018-12-07T09:53:13.897Z,11.89
2018-12-07T09:55:42.799Z,11.78
2018-12-07T09:58:11.680Z,11.82
2018-12-07T10:00:40.607Z,11.97
2018-12-07T10:03:09.613Z,11.79
2018-12-07T10:05:38.517Z,11.83
2018-12-07T10:08:07.669Z,11.80
2018-12-07T10:10:36.552Z,12.12
2018-12-07T10:13:08.139Z,11.94
2018-12-07T10:15:34.408Z,11.90
2018-12-07T10:18:03.324Z,12.22
2018-12-07T10:20:32.251Z,11.80
2018-12-07T10:23:01.238Z,11.79
2018-12-07T10:25:30.076Z,11.78
2018-12-07T10:27:58.989Z,11.90
2018-12-07T10:30:27.944Z,11.89
2018-12-07T10:32:56.849Z,11.91
2018-12-07T10:35:25.752Z,11.90
2018-12-07T10:37:54.676Z,11.79
2018-12-07T10:40:23.550Z,11.75
2018-12-07T10:42:52.443Z,11.81
2018-12-07T10:45:21.350Z,11.90
2018-12-07T10:47:50.542Z,11.77
2018-12-07T10:50:19.141Z,11.90
2018-12-07T10:52:48.032Z,11.83
2018-12-07T10:55:16.963Z,11.93
2018-12-07T10:57:45.842Z,11.94
2018-12-07T11:00:32.600Z,11.96
2018-12-07T11:03:19.268Z,11.97
2018-12-07T11:06:06.189Z,12.05
2018-12-07T11:08:53.237Z,12.02
2018-12-07T11:11:41.424Z,11.96
2018-12-07T11:14:13.354Z,11.97
2018-12-07T11:17:06.986Z,12.01
2018-12-07T11:19:54.137Z,12.06
2018-12-07T11:22:43.903Z,12.01
2018-12-07T11:25:31.057Z,11.91
2018-12-07T11:28:17.912Z,12.03
2018-12-07T11:31:04.906Z,12.05
2018-12-07T11:33:44.350Z,12.00
2018-12-07T11:36:16.304Z,12.09
2018-12-07T11:38:45.718Z,12.08
2018-12-07T11:41:17.834Z,12.01
2018-12-07T11:43:47.335Z,12.10
2018-12-07T11:46:19.897Z,12.13
2018-12-07T11:48:56.614Z,12.13
2018-12-07T11:51:28.363Z,12.15
2018-12-07T11:53:59.803Z,12.16
2018-12-07T11:56:30.891Z,12.27
2018-12-07T11:58:58.799Z,12.07
2018-12-07T12:01:44.509Z,12.11
2018-12-07T12:04:07.368Z,12.01
2018-12-07T12:06:36.397Z,12.19
2018-12-07T12:09:10.267Z,12.20
2018-12-07T12:11:38.717Z,12.11
2018-12-07T12:14:10.958Z,12.04
2018-12-07T12:16:45.505Z,12.19
2018-12-07T12:19:14.976Z,12.09
2018-12-07T12:21:44.526Z,12.09
2018-12-07T12:24:13.701Z,12.06
2018-12-07T12:26:43.175Z,12.14
2018-12-07T12:29:12.531Z,12.40
2018-12-07T12:31:42.253Z,12.14
2018-12-07T12:34:12.119Z,12.19
2018-12-07T12:36:43.304Z,12.27
2018-12-07T12:39:13.243Z,12.24
2018-12-07T12:41:46.739Z,12.13
2018-12-07T12:44:11.939Z,12.21
2018-12-07T12:46:41.110Z,12.31
2018-12-07T12:49:13.061Z,12.14
2018-12-07T12:51:44.550Z,12.52
2018-12-07T12:54:18.632Z,12.13
2018-12-07T12:56:49.255Z,12.21
2018-12-07T12:59:21.552Z,12.12
2018-12-07T13:02:00.708Z,12.01
2018-12-07T13:04:26.469Z,12.03
2018-12-07T13:06:58.483Z,12.07
2018-12-07T13:09:27.794Z,12.24
2018-12-07T13:11:59.006Z,12.04
2018-12-07T13:14:31.086Z,12.05
2018-12-07T13:17:00.729Z,12.10
2018-12-07T13:19:32.065Z,12.12
2018-12-07T13:22:07.824Z,12.09
2018-12-07T13:24:35.179Z,12.01
2018-12-07T13:27:04.479Z,12.00
2018-12-07T13:29:49.408Z,11.97
2018-12-07T13:32:18.845Z,11.91
2018-12-07T13:34:48.352Z,12.04
2018-12-07T13:37:22.824Z,11.99
2018-12-07T13:39:55.120Z,12.04
2018-12-07T13:42:24.707Z,11.93
2018-12-07T13:44:56.253Z,11.88
2018-12-07T13:47:29.920Z,11.86
2018-12-07T13:50:17.181Z,11.89
2018-12-07T13:52:57.593Z,11.90
2018-12-07T13:55:27.080Z,11.98
2018-12-07T13:57:56.198Z,11.87
2018-12-07T14:00:25.615Z,11.98
2018-12-07T14:02:54.865Z,11.93
2018-12-07T14:05:32.053Z,11.98
2018-12-07T14:07:56.741Z,12.04
2018-12-07T14:10:28.210Z,11.97
2018-12-07T14:12:57.607Z,12.06
2018-12-07T14:15:27.861Z,12.10
2018-12-07T14:17:57.071Z,12.15
2018-12-07T14:20:31.476Z,12.09
2018-12-07T14:23:00.744Z,11.99
2018-12-07T14:25:30.428Z,12.19
2018-12-07T14:27:59.762Z,11.88
2018-12-07T14:30:28.842Z,12.02
2018-12-07T14:32:59.210Z,11.93
2018-12-07T14:35:31.507Z,11.70
2018-12-07T14:38:00.862Z,11.69
2018-12-07T14:40:30.333Z,11.70
2018-12-07T14:42:59.641Z,11.74
2018-12-07T14:45:29.123Z,11.55
2018-12-07T14:47:58.643Z,11.72
2018-12-07T14:50:28.407Z,11.69
2018-12-07T14:52:57.874Z,11.58
2018-12-07T14:55:28.917Z,11.57
2018-12-07T14:57:59.139Z,11.40
2018-12-07T15:00:28.431Z,11.66
2018-12-07T15:02:57.833Z,11.48
2018-12-07T15:05:27.335Z,11.50
2018-12-07T15:07:56.803Z,11.31
2018-12-07T15:10:25.852Z,11.40
2018-12-07T15:12:55.021Z,11.39
2018-12-07T15:15:24.407Z,11.30
2018-12-07T15:17:56.884Z,11.38
2018-12-07T15:20:30.135Z,11.22
2018-12-07T15:23:01.316Z,11.13
2018-12-07T15:25:33.485Z,11.40
2018-12-07T15:28:04.876Z,11.13
2018-12-07T15:30:34.315Z,11.17
2018-12-07T15:33:03.299Z,11.22
2018-12-07T15:35:32.977Z,11.13
2018-12-07T15:38:02.751Z,11.10
2018-12-07T15:40:32.032Z,11.07
2018-12-07T15:43:01.095Z,10.97
2018-12-07T15:45:31.052Z,11.05
2018-12-07T15:48:00.367Z,11.14
2018-12-07T15:50:29.979Z,11.16
2018-12-07T15:52:58.854Z,10.94
2018-12-07T15:55:27.535Z,11.05
2018-12-07T15:57:56.642Z,11.26
2018-12-07T16:00:25.415Z,11.13
2018-12-07T16:02:54.416Z,11.40
2018-12-07T16:05:23.384Z,11.22
2018-12-07T16:07:52.167Z,11.05
2018-12-07T16:10:21.037Z,11.09
2018-12-07T16:12:49.916Z,11.08
2018-12-07T16:15:18.821Z,11.12
2018-12-07T16:17:47.863Z,11.05
2018-12-07T16:20:18.445Z,11.00
2018-12-07T16:22:47.376Z,11.05
2018-12-07T16:25:16.363Z,11.34
2018-12-07T16:27:45.206Z,11.06
2018-12-07T16:30:14.234Z,11.13
2018-12-07T16:32:43.325Z,11.18
2018-12-07T16:35:12.182Z,11.15
2018-12-07T16:37:40.966Z,10.91
2018-12-07T16:40:09.870Z,10.73
2018-12-07T16:42:38.922Z,10.39
2018-12-07T16:45:08.030Z,10.22
2018-12-07T16:47:36.734Z,10.09
2018-12-07T16:50:08.833Z,9.97
2018-12-07T16:52:37.669Z,9.81
2018-12-07T16:55:06.750Z,9.77
2018-12-07T16:57:35.617Z,9.68
2018-12-07T17:00:04.873Z,9.63
2018-12-07T17:02:33.854Z,9.56
2018-12-07T17:05:02.777Z,9.53
2018-12-07T17:07:31.531Z,9.46
2018-12-07T17:10:00.706Z,9.46
2018-12-07T17:12:30.074Z,9.46
2018-12-07T17:14:59.028Z,9.52
2018-12-07T17:17:28.051Z,9.74
2018-12-07T17:19:56.859Z,9.73
2018-12-07T17:22:25.761Z,9.50
2018-12-07T17:24:55.707Z,9.42
2018-12-07T17:27:24.530Z,9.42
2018-12-07T17:29:53.343Z,9.37
2018-12-07T17:32:22.252Z,9.36
2018-12-07T17:34:51.260Z,9.29
2018-12-07T17:37:20.114Z,9.23
2018-12-07T17:39:48.998Z,9.23
2018-12-07T17:42:17.946Z,9.22
2018-12-07T17:44:47.054Z,9.27
2018-12-07T17:47:15.810Z,9.26
2018-12-07T17:49:44.753Z,9.23
2018-12-07T17:52:13.666Z,9.13
2018-12-07T17:54:42.586Z,9.15
2018-12-07T17:57:11.485Z,8.98
2018-12-07T17:59:40.356Z,9.04
2018-12-07T18:02:09.256Z,8.98
2018-12-07T18:04:38.149Z,8.95
2018-12-07T18:07:07.169Z,8.88
2018-12-07T18:09:36.412Z,8.86
2018-12-07T18:12:06.622Z,8.85
2018-12-07T18:14:36.998Z,8.83
2018-12-07T18:17:05.863Z,8.82
2018-12-07T18:19:34.762Z,8.80
2018-12-07T18:22:03.904Z,8.69
2018-12-07T18:24:32.764Z,8.68
2018-12-07T18:27:01.777Z,8.56
2018-12-07T18:29:31.057Z,8.49
2018-12-07T18:32:00.124Z,8.80
2018-12-07T18:34:29.075Z,8.70
2018-12-07T18:36:58.009Z,8.68
2018-12-07T18:39:26.832Z,8.94
2018-12-07T18:41:55.832Z,8.96
2018-12-07T18:44:25.017Z,8.75
2018-12-07T18:46:53.782Z,8.72
2018-12-07T18:49:22.663Z,8.72
2018-12-07T18:51:51.683Z,8.95
2018-12-07T18:54:20.519Z,8.76
2018-12-07T18:56:49.631Z,8.58
2018-12-07T18:59:18.332Z,8.60
2018-12-07T19:01:47.295Z,8.59
2018-12-07T19:04:16.328Z,8.52
2018-12-07T19:06:45.102Z,8.57
2018-12-07T19:09:14.234Z,8.46
2018-12-07T19:11:43.134Z,8.47
2018-12-07T19:14:12.019Z,8.37
2018-12-07T19:16:40.929Z,8.37
2018-12-07T19:19:10.042Z,8.44
2018-12-07T19:21:39.184Z,8.41
2018-12-07T19:24:08.777Z,8.74
2018-12-07T19:26:37.658Z,8.72
2018-12-07T19:29:06.722Z,8.60
2018-12-07T19:31:35.623Z,8.60
2018-12-07T19:34:04.453Z,8.61
2018-12-07T19:36:33.372Z,8.62
2018-12-07T19:39:02.456Z,8.57
2018-12-07T19:41:31.299Z,8.49
2018-12-07T19:44:00.156Z,8.55
2018-12-07T19:46:29.211Z,8.53
2018-12-07T19:48:58.236Z,8.39
2018-12-07T19:51:27.251Z,8.35
2018-12-07T19:53:56.016Z,8.26
2018-12-07T19:56:24.886Z,8.28
2018-12-07T19:58:53.859Z,8.28
2018-12-07T20:01:22.596Z,8.26
2018-12-07T20:03:51.564Z,8.12
2018-12-07T20:06:20.554Z,8.20
2018-12-07T20:08:49.377Z,8.19
2018-12-07T20:11:18.438Z,8.02
2018-12-07T20:13:49.989Z,8.27
2018-12-07T20:16:18.983Z,7.96
2018-12-07T20:18:47.766Z,7.86
2018-12-07T20:21:16.552Z,8.00
2018-12-07T20:23:47.987Z,7.93
2018-12-07T20:26:16.894Z,7.88
2018-12-07T20:28:46.077Z,7.88
2018-12-07T20:31:15.034Z,7.78
2018-12-07T20:33:43.870Z,7.76
2018-12-07T20:36:12.720Z,8.05
2018-12-07T20:38:43.221Z,7.84
2018-12-07T20:41:10.651Z,7.80
2018-12-07T20:43:39.474Z,7.67
2018-12-07T20:46:08.559Z,7.69
2018-12-07T20:48:37.726Z,7.66
2018-12-07T20:51:06.594Z,7.66
2018-12-07T20:53:35.454Z,7.61
2018-12-07T20:56:04.363Z,7.69
2018-12-07T20:58:33.296Z,7.76
2018-12-07T21:01:02.371Z,7.81
2018-12-07T21:04:25.533Z,7.80
2018-12-07T21:07:32.291Z,7.81
2018-12-07T21:10:55.019Z,7.85
2018-12-07T21:13:36.481Z,7.90
2018-12-07T21:17:01.070Z,8.22
2018-12-07T21:19:30.051Z,7.99
2018-12-07T21:21:59.093Z,8.24
2018-12-07T21:24:27.835Z,7.98
2018-12-07T21:26:56.805Z,7.95
2018-12-07T21:29:25.757Z,7.96
2018-12-07T21:31:56.348Z,8.05
2018-12-07T21:35:03.308Z,8.03
2018-12-07T21:37:32.761Z,8.05
2018-12-07T21:40:40.929Z,7.99
2018-12-07T21:43:09.917Z,7.88
2018-12-07T21:45:38.690Z,7.91
2018-12-07T21:48:36.388Z,7.86
2018-12-07T21:51:33.901Z,7.72
2018-12-07T21:54:02.690Z,7.67
2018-12-07T21:56:31.765Z,7.50
2018-12-07T21:59:00.482Z,7.86
2018-12-07T22:01:29.645Z,7.95
2018-12-07T22:03:58.513Z,7.73
2018-12-07T22:06:27.433Z,7.60
2018-12-07T22:08:56.073Z,7.37
2018-12-07T22:11:24.925Z,7.52
2018-12-07T22:13:54.054Z,7.54
2018-12-07T22:16:22.731Z,7.56
2018-12-07T22:18:51.690Z,7.55
2018-12-07T22:21:20.897Z,7.54
2018-12-07T22:23:49.481Z,7.55
2018-12-07T22:26:18.485Z,7.51
2018-12-07T22:28:47.382Z,7.56
2018-12-07T22:31:16.470Z,7.52
2018-12-07T22:33:45.610Z,7.69
2018-12-07T22:36:14.285Z,7.61
2018-12-07T22:38:43.406Z,7.54
2018-12-07T22:41:12.306Z,7.53
2018-12-07T22:43:41.333Z,7.52
2018-12-07T22:46:09.988Z,7.42
2018-12-07T22:48:38.947Z,7.39
2018-12-07T22:51:07.882Z,7.36
2018-12-07T22:53:36.738Z,7.35
2018-12-07T22:56:05.719Z,7.50
2018-12-07T22:58:34.641Z,7.52
2018-12-07T23:01:03.579Z,7.61
2018-12-07T23:03:32.450Z,7.57
2018-12-07T23:06:01.364Z,7.58
2018-12-07T23:08:30.270Z,7.57
2018-12-07T23:10:59.181Z,7.35
2018-12-07T23:13:28.096Z,7.43
2018-12-07T23:15:57.019Z,7.39
2018-12-07T23:18:25.928Z,7.37
2018-12-07T23:20:54.824Z,7.61
2018-12-07T23:23:23.796Z,7.47
2018-12-07T23:25:52.823Z,7.41
2018-12-07T23:28:21.732Z,7.36
2018-12-07T23:30:50.598Z,7.30
2018-12-07T23:33:19.539Z,7.43
2018-12-07T23:35:48.451Z,7.41
2018-12-07T23:38:17.423Z,7.34
2018-12-07T23:40:46.327Z,7.65
2018-12-07T23:43:15.380Z,7.35
2018-12-07T23:45:44.251Z,7.52
2018-12-07T23:48:13.301Z,7.47
2018-12-07T23:50:42.173Z,7.40
2018-12-07T23:53:11.092Z,7.62
2018-12-07T23:55:40.031Z,7.51
2018-12-07T23:58:09.013Z,7.40
